createdAt,value
2017-12-30T00:01:10.247Z,8.60
2017-12-30T00:03:36.495Z,9.63
2017-12-30T00:06:02.765Z,8.47
2017-12-30T00:08:29.159Z,7.40
2017-12-30T00:10:55.421Z,6.40
2017-12-30T00:13:21.714Z,9.23
2017-12-30T00:15:48.037Z,8.00
2017-12-30T00:18:14.354Z,13.17
2017-12-30T00:20:40.597Z,6.80
2017-12-30T00:23:06.917Z,9.10
2017-12-30T00:25:33.207Z,6.40
2017-12-30T00:28:00.203Z,9.73
2017-12-30T00:30:26.433Z,8.90
2017-12-30T00:32:52.736Z,11.87
2017-12-30T00:35:19.004Z,9.67
2017-12-30T00:37:45.216Z,10.37
2017-12-30T00:40:11.432Z,8.47
2017-12-30T00:42:37.687Z,13.13
2017-12-30T00:45:03.916Z,10.20
2017-12-30T00:47:30.180Z,6.70
2017-12-30T00:49:56.472Z,8.70
2017-12-30T00:52:22.739Z,7.80
2017-12-30T00:54:49.012Z,8.47
2017-12-30T00:57:15.294Z,10.57
2017-12-30T00:59:41.532Z,5.23
2017-12-30T01:02:07.890Z,6.07
2017-12-30T01:04:34.140Z,8.40
2017-12-30T01:07:00.410Z,6.83
2017-12-30T01:09:26.662Z,6.33
2017-12-30T01:11:53.638Z,6.37
2017-12-30T01:14:20.045Z,7.47
2017-12-30T01:16:47.042Z,8.60
2017-12-30T01:19:13.309Z,8.33
2017-12-30T01:21:39.562Z,6.37
2017-12-30T01:24:05.807Z,9.57
2017-12-30T01:26:32.057Z,5.50
2017-12-30T01:28:58.326Z,7.40
2017-12-30T01:31:24.572Z,6.03
2017-12-30T01:33:51.587Z,7.57
2017-12-30T01:36:17.823Z,12.63
2017-12-30T01:38:44.089Z,8.57
2017-12-30T01:41:10.426Z,6.37
2017-12-30T01:43:36.715Z,9.07
2017-12-30T01:46:02.995Z,9.27
2017-12-30T01:48:29.271Z,7.00
2017-12-30T01:50:55.537Z,5.60
2017-12-30T01:53:21.883Z,8.87
2017-12-30T01:55:48.159Z,6.53
2017-12-30T01:58:14.440Z,4.40
2017-12-30T02:00:40.755Z,6.13
2017-12-30T02:03:07.828Z,8.70
2017-12-30T02:05:34.160Z,5.90
2017-12-30T02:08:00.424Z,9.07
2017-12-30T02:10:26.720Z,4.77
2017-12-30T02:12:52.949Z,7.63
2017-12-30T02:15:19.259Z,6.43
2017-12-30T02:17:45.538Z,7.40
2017-12-30T02:20:12.588Z,6.40
2017-12-30T02:22:38.868Z,7.47
2017-12-30T02:25:05.214Z,6.77
2017-12-30T02:27:31.476Z,5.20
2017-12-30T02:29:57.740Z,5.03
2017-12-30T02:32:24.753Z,4.93
2017-12-30T02:34:51.083Z,4.93
2017-12-30T02:37:17.378Z,5.60
2017-12-30T02:39:43.692Z,5.97
2017-12-30T02:42:10.763Z,6.23
2017-12-30T02:44:37.033Z,7.60
2017-12-30T02:47:03.327Z,3.23
2017-12-30T02:49:29.643Z,4.70
2017-12-30T02:51:55.981Z,4.33
2017-12-30T02:54:22.232Z,5.40
2017-12-30T02:56:48.485Z,6.57
2017-12-30T02:59:14.761Z,6.30
2017-12-30T03:01:41.023Z,10.77
2017-12-30T03:04:07.295Z,6.50
2017-12-30T03:06:34.277Z,6.50
2017-12-30T03:09:00.579Z,4.70
2017-12-30T03:11:27.580Z,6.47
2017-12-30T03:13:53.860Z,4.20
2017-12-30T03:16:20.894Z,7.03
2017-12-30T03:18:47.880Z,6.93
2017-12-30T03:21:14.180Z,10.83
2017-12-30T03:23:41.182Z,7.00
2017-12-30T03:26:07.468Z,6.90
2017-12-30T03:28:33.796Z,4.87
2017-12-30T03:31:00.793Z,4.73
2017-12-30T03:33:27.081Z,8.00
2017-12-30T03:35:53.354Z,4.93
2017-12-30T03:38:19.641Z,3.70
2017-12-30T03:40:45.893Z,5.37
2017-12-30T03:43:12.136Z,5.40
2017-12-30T03:45:38.431Z,4.33
2017-12-30T03:48:04.663Z,4.37
2017-12-30T03:50:30.952Z,6.60
2017-12-30T03:52:57.203Z,4.70
2017-12-30T03:55:24.249Z,4.67
2017-12-30T03:57:51.231Z,4.67
2017-12-30T04:00:17.523Z,4.03
2017-12-30T04:02:44.491Z,3.37
2017-12-30T04:05:10.761Z,3.30
2017-12-30T04:07:36.983Z,4.07
2017-12-30T04:10:03.239Z,3.03
2017-12-30T04:12:29.496Z,5.47
2017-12-30T04:14:56.490Z,2.57
2017-12-30T04:17:22.764Z,2.47
2017-12-30T04:19:49.758Z,2.27
2017-12-30T04:22:16.038Z,3.77
2017-12-30T04:24:43.080Z,2.93
2017-12-30T04:27:09.352Z,3.63
2017-12-30T04:29:35.644Z,1.90
2017-12-30T04:32:02.618Z,2.30
2017-12-30T04:34:28.868Z,3.10
2017-12-30T04:36:55.175Z,2.40
2017-12-30T04:39:21.455Z,2.23
2017-12-30T04:41:47.713Z,1.77
2017-12-30T04:44:14.763Z,3.23
2017-12-30T04:46:41.781Z,3.17
2017-12-30T04:49:08.031Z,1.87
2017-12-30T04:51:34.341Z,1.80
2017-12-30T04:54:00.593Z,1.77
2017-12-30T04:56:27.613Z,1.90
2017-12-30T04:58:53.863Z,2.70
2017-12-30T05:01:20.083Z,2.50
2017-12-30T05:03:47.179Z,2.50
2017-12-30T05:06:13.480Z,2.20
2017-12-30T05:08:39.726Z,3.47
2017-12-30T05:11:06.735Z,6.20
2017-12-30T05:13:32.982Z,3.67
2017-12-30T05:15:59.210Z,6.87
2017-12-30T05:18:25.497Z,5.23
2017-12-30T05:20:51.738Z,5.23
2017-12-30T05:23:18.002Z,6.37
2017-12-30T05:25:44.300Z,4.90
2017-12-30T05:28:10.546Z,7.40
2017-12-30T05:30:36.810Z,5.53
2017-12-30T05:33:03.108Z,3.90
2017-12-30T05:35:29.360Z,4.53
2017-12-30T05:37:57.216Z,3.37
2017-12-30T05:40:24.289Z,3.40
2017-12-30T05:42:50.552Z,3.27
2017-12-30T05:45:16.862Z,4.50
2017-12-30T05:47:43.136Z,3.70
2017-12-30T05:50:09.367Z,3.23
2017-12-30T05:52:35.632Z,2.90
2017-12-30T05:55:01.908Z,5.47
2017-12-30T05:57:28.231Z,8.33
2017-12-30T05:59:54.509Z,2.40
2017-12-30T06:02:21.540Z,3.60
2017-12-30T06:04:47.771Z,6.10
2017-12-30T06:07:14.019Z,2.60
2017-12-30T06:09:41.049Z,6.63
2017-12-30T06:12:08.832Z,5.73
2017-12-30T06:14:35.808Z,6.57
2017-12-30T06:17:02.096Z,5.00
2017-12-30T06:19:28.388Z,5.20
2017-12-30T06:21:54.656Z,6.47
2017-12-30T06:24:20.914Z,8.67
2017-12-30T06:26:47.176Z,12.13
2017-12-30T06:29:13.438Z,9.63
2017-12-30T06:31:39.704Z,9.70
2017-12-30T06:34:05.970Z,8.00
2017-12-30T06:36:32.220Z,8.53
2017-12-30T06:38:58.520Z,10.87
2017-12-30T06:41:24.778Z,5.90
2017-12-30T06:43:51.082Z,8.47
2017-12-30T06:46:17.352Z,9.70
2017-12-30T06:48:43.630Z,6.97
2017-12-30T06:51:16.882Z,8.83
2017-12-30T06:53:43.135Z,9.30
2017-12-30T06:56:09.436Z,10.03
2017-12-30T06:58:35.716Z,12.13
2017-12-30T07:01:01.996Z,9.40
2017-12-30T07:03:29.034Z,11.80
2017-12-30T07:05:55.260Z,8.50
2017-12-30T07:08:21.533Z,9.87
2017-12-30T07:10:47.777Z,14.87
2017-12-30T07:13:14.108Z,11.17
2017-12-30T07:15:40.359Z,11.77
2017-12-30T07:18:06.626Z,10.10
2017-12-30T07:20:32.894Z,10.87
2017-12-30T07:22:59.156Z,9.27
2017-12-30T07:25:25.414Z,11.50
2017-12-30T07:27:52.459Z,10.77
2017-12-30T07:30:19.513Z,14.67
2017-12-30T07:32:46.599Z,12.20
2017-12-30T07:35:12.955Z,14.40
2017-12-30T07:37:39.259Z,12.03
2017-12-30T07:40:05.577Z,15.07
2017-12-30T07:42:31.851Z,15.67
2017-12-30T07:44:58.183Z,12.47
2017-12-30T07:47:24.411Z,11.27
2017-12-30T07:49:50.679Z,10.97
2017-12-30T07:52:16.943Z,9.77
2017-12-30T07:54:43.265Z,10.00
2017-12-30T07:57:09.500Z,11.70
2017-12-30T07:59:35.829Z,12.50
2017-12-30T08:02:02.164Z,11.13
2017-12-30T08:04:28.406Z,12.43
2017-12-30T08:06:54.731Z,10.57
2017-12-30T08:09:20.975Z,10.30
2017-12-30T08:11:47.302Z,9.90
2017-12-30T08:14:13.515Z,11.80
2017-12-30T08:16:39.794Z,9.90
2017-12-30T08:19:06.047Z,12.60
2017-12-30T08:21:32.319Z,10.97
2017-12-30T08:23:58.642Z,10.80
2017-12-30T08:26:25.001Z,10.63
2017-12-30T08:28:51.282Z,9.00
2017-12-30T08:31:17.540Z,11.13
2017-12-30T08:33:43.835Z,15.47
2017-12-30T08:36:10.148Z,13.20
2017-12-30T08:38:37.158Z,13.30
2017-12-30T08:41:03.386Z,15.33
2017-12-30T08:43:29.656Z,11.80
2017-12-30T08:45:56.675Z,9.60
2017-12-30T08:48:22.919Z,10.13
2017-12-30T08:50:49.229Z,13.63
2017-12-30T08:53:15.523Z,12.37
2017-12-30T08:55:41.853Z,13.43
2017-12-30T08:58:08.131Z,12.53
2017-12-30T09:00:34.437Z,13.03
2017-12-30T09:03:00.689Z,11.30
2017-12-30T09:05:26.993Z,10.67
2017-12-30T09:07:53.305Z,10.00
2017-12-30T09:10:19.587Z,9.17
2017-12-30T09:12:45.912Z,11.40
2017-12-30T09:15:12.243Z,12.27
2017-12-30T09:17:38.519Z,7.20
2017-12-30T09:20:04.816Z,12.10
2017-12-30T09:22:31.880Z,11.40
2017-12-30T09:24:58.950Z,11.20
2017-12-30T09:27:25.284Z,10.47
2017-12-30T09:29:51.592Z,10.63
2017-12-30T09:32:18.648Z,11.43
2017-12-30T09:34:45.614Z,12.10
2017-12-30T09:37:11.940Z,8.93
2017-12-30T09:39:38.164Z,11.27
2017-12-30T09:42:04.403Z,12.10
2017-12-30T09:44:30.708Z,10.00
2017-12-30T09:46:57.760Z,11.10
2017-12-30T09:49:24.811Z,8.17
2017-12-30T09:51:51.809Z,9.90
2017-12-30T09:54:18.173Z,12.03
2017-12-30T09:56:44.415Z,12.17
2017-12-30T09:59:11.450Z,11.80
2017-12-30T10:01:38.458Z,10.60
2017-12-30T10:04:04.850Z,12.93
2017-12-30T10:06:31.129Z,10.87
2017-12-30T10:08:57.428Z,9.67
2017-12-30T10:11:24.672Z,11.13
2017-12-30T10:13:50.984Z,10.50
2017-12-30T10:16:17.979Z,8.47
2017-12-30T10:18:44.236Z,12.57
2017-12-30T10:21:10.558Z,11.13
2017-12-30T10:23:36.880Z,9.90
2017-12-30T10:26:03.150Z,9.83
2017-12-30T10:28:30.224Z,9.77
2017-12-30T10:30:56.480Z,8.23
2017-12-30T10:33:22.856Z,12.07
2017-12-30T10:35:49.869Z,8.07
2017-12-30T10:38:16.181Z,5.53
2017-12-30T10:40:42.488Z,7.40
2017-12-30T10:43:08.799Z,6.63
2017-12-30T10:45:35.799Z,2.80
2017-12-30T10:48:02.117Z,6.27
2017-12-30T10:50:28.351Z,5.07
2017-12-30T10:52:54.705Z,3.23
2017-12-30T10:55:21.428Z,5.60
2017-12-30T10:57:47.755Z,5.50
2017-12-30T11:00:14.107Z,5.97
2017-12-30T11:02:40.362Z,6.37
2017-12-30T11:05:07.494Z,5.47
2017-12-30T11:07:33.804Z,7.30
2017-12-30T11:10:00.120Z,4.33
2017-12-30T11:12:26.429Z,6.30
2017-12-30T11:14:52.735Z,6.00
2017-12-30T11:17:19.782Z,4.37
2017-12-30T11:19:46.882Z,4.60
2017-12-30T11:22:14.596Z,6.60
2017-12-30T11:24:41.669Z,5.70
2017-12-30T11:27:07.948Z,13.97
2017-12-30T11:29:34.300Z,5.77
2017-12-30T11:32:01.291Z,9.00
2017-12-30T11:34:27.588Z,7.47
2017-12-30T11:36:54.602Z,12.03
2017-12-30T11:39:20.849Z,9.63
2017-12-30T11:41:47.163Z,11.27
2017-12-30T11:44:13.421Z,6.00
2017-12-30T11:46:40.421Z,10.47
2017-12-30T11:49:06.769Z,7.70
2017-12-30T11:51:33.019Z,8.30
2017-12-30T11:53:59.289Z,7.90
2017-12-30T11:56:25.662Z,11.43
2017-12-30T11:58:51.903Z,8.23
2017-12-30T12:01:18.240Z,6.40
2017-12-30T12:03:45.324Z,9.97
2017-12-30T12:06:11.630Z,11.10
2017-12-30T12:08:38.638Z,11.43
2017-12-30T12:11:04.954Z,18.50
2017-12-30T12:13:31.226Z,6.03
2017-12-30T12:15:57.492Z,8.70
2017-12-30T12:18:23.754Z,7.70
2017-12-30T12:20:50.052Z,7.87
2017-12-30T12:23:16.414Z,5.53
2017-12-30T12:25:42.728Z,6.20
2017-12-30T12:28:08.993Z,9.20
2017-12-30T12:30:35.322Z,6.70
2017-12-30T12:33:01.603Z,7.60
2017-12-30T12:35:27.939Z,6.17
2017-12-30T12:37:54.237Z,13.60
2017-12-30T12:40:21.299Z,8.97
2017-12-30T12:42:48.349Z,13.07
2017-12-30T12:45:15.397Z,8.10
2017-12-30T12:47:42.439Z,9.67
2017-12-30T12:50:09.491Z,9.43
2017-12-30T12:52:36.569Z,10.30
2017-12-30T12:55:02.888Z,12.20
2017-12-30T12:57:29.177Z,10.70
2017-12-30T12:59:55.480Z,15.30
2017-12-30T13:02:21.732Z,12.40
2017-12-30T13:04:48.774Z,11.57
2017-12-30T13:07:15.076Z,11.03
2017-12-30T13:09:41.381Z,11.97
2017-12-30T13:12:08.282Z,12.70
2017-12-30T13:14:34.567Z,12.67
2017-12-30T13:17:00.869Z,12.30
2017-12-30T13:19:28.709Z,10.47
2017-12-30T13:21:54.981Z,11.23
2017-12-30T13:24:22.097Z,16.23
2017-12-30T13:26:48.487Z,13.17
2017-12-30T13:29:14.823Z,11.87
2017-12-30T13:31:41.157Z,7.90
2017-12-30T13:34:07.465Z,8.80
2017-12-30T13:36:33.795Z,15.80
2017-12-30T13:39:00.101Z,14.17
2017-12-30T13:41:27.122Z,14.87
2017-12-30T13:43:53.415Z,11.50
2017-12-30T13:46:19.711Z,10.87
2017-12-30T13:48:46.765Z,10.10
2017-12-30T13:51:13.768Z,14.70
2017-12-30T13:53:40.044Z,11.83
2017-12-30T13:56:06.348Z,8.90
2017-12-30T13:58:32.614Z,6.50
2017-12-30T14:00:58.908Z,6.17
2017-12-30T14:03:25.152Z,4.70
2017-12-30T14:05:52.181Z,4.70
2017-12-30T14:08:18.492Z,2.57
2017-12-30T14:10:44.803Z,1.97
2017-12-30T14:13:11.287Z,3.80
2017-12-30T14:15:37.547Z,3.93
2017-12-30T14:18:03.854Z,3.23
2017-12-30T14:20:30.147Z,2.90
2017-12-30T14:22:56.515Z,2.63
2017-12-30T14:25:22.783Z,4.10
2017-12-30T14:27:49.041Z,2.27
2017-12-30T14:30:15.319Z,3.17
2017-12-30T14:32:42.333Z,3.73
2017-12-30T14:35:08.661Z,4.40
2017-12-30T14:37:34.912Z,6.60
2017-12-30T14:40:01.171Z,2.63
2017-12-30T14:42:27.420Z,2.30
2017-12-30T14:44:53.679Z,5.87
2017-12-30T14:47:20.004Z,5.00
2017-12-30T14:49:46.351Z,4.80
2017-12-30T14:52:12.708Z,3.80
2017-12-30T14:54:39.720Z,5.83
2017-12-30T14:57:06.016Z,4.07
2017-12-30T14:59:32.312Z,4.20
2017-12-30T15:01:59.295Z,3.57
2017-12-30T15:04:25.587Z,2.50
2017-12-30T15:06:52.636Z,3.03
2017-12-30T15:09:19.757Z,2.50
2017-12-30T15:11:46.033Z,1.53
2017-12-30T15:14:12.638Z,3.17
2017-12-30T15:16:38.967Z,2.50
2017-12-30T15:19:05.231Z,2.70
2017-12-30T15:21:31.559Z,2.30
2017-12-30T15:23:57.817Z,2.13
2017-12-30T15:26:24.164Z,2.20
2017-12-30T15:28:50.521Z,1.60
2017-12-30T15:31:16.780Z,0.93
2017-12-30T15:33:43.801Z,1.27
2017-12-30T15:36:10.076Z,1.80
2017-12-30T15:38:36.361Z,1.20
2017-12-30T15:41:02.606Z,2.10
2017-12-30T15:43:29.763Z,2.27
2017-12-30T15:45:56.849Z,1.47
2017-12-30T15:48:23.136Z,1.93
2017-12-30T15:50:50.268Z,1.87
2017-12-30T15:53:16.561Z,2.37
2017-12-30T15:55:42.890Z,1.67
2017-12-30T15:58:09.278Z,2.30
2017-12-30T16:00:36.333Z,1.70
2017-12-30T16:03:03.418Z,1.80
2017-12-30T16:05:29.808Z,3.07
2017-12-30T16:07:56.829Z,2.00
2017-12-30T16:10:23.118Z,2.10
2017-12-30T16:12:49.439Z,3.63
2017-12-30T16:15:15.765Z,3.00
2017-12-30T16:17:42.015Z,1.43
2017-12-30T16:20:08.410Z,1.80
2017-12-30T16:22:35.504Z,1.43
2017-12-30T16:25:01.813Z,1.10
2017-12-30T16:27:28.204Z,1.00
2017-12-30T16:29:54.619Z,1.40
2017-12-30T16:32:20.949Z,1.50
2017-12-30T16:34:47.284Z,1.40
2017-12-30T16:37:13.593Z,2.50
2017-12-30T16:39:39.846Z,1.37
2017-12-30T16:42:06.280Z,1.57
2017-12-30T16:44:32.609Z,2.50
2017-12-30T16:46:58.949Z,1.13
2017-12-30T16:49:25.340Z,1.43
2017-12-30T16:51:51.634Z,2.23
2017-12-30T16:54:18.918Z,2.40
2017-12-30T16:56:45.295Z,1.67
2017-12-30T16:59:11.618Z,2.40
2017-12-30T17:01:37.959Z,1.23
2017-12-30T17:04:04.274Z,3.13
2017-12-30T17:06:30.608Z,3.70
2017-12-30T17:08:56.901Z,6.30
2017-12-30T17:11:23.270Z,3.93
2017-12-30T17:13:49.587Z,5.00
2017-12-30T17:16:16.007Z,7.50
2017-12-30T17:18:42.315Z,3.17
2017-12-30T17:21:09.496Z,4.27
2017-12-30T17:23:35.876Z,5.93
2017-12-30T17:26:02.285Z,4.13
2017-12-30T17:28:28.843Z,6.80
2017-12-30T17:30:55.217Z,7.93
2017-12-30T17:33:21.519Z,5.07
2017-12-30T17:35:48.635Z,6.57
2017-12-30T17:38:14.939Z,3.37
2017-12-30T17:40:41.274Z,9.30
2017-12-30T17:43:07.536Z,12.23
2017-12-30T17:45:33.856Z,13.60
2017-12-30T17:48:00.137Z,7.47
2017-12-30T17:50:26.490Z,11.30
2017-12-30T17:52:52.876Z,18.97
2017-12-30T17:55:19.246Z,12.60
2017-12-30T17:57:45.547Z,12.17
2017-12-30T18:00:12.672Z,18.87
2017-12-30T18:02:38.996Z,14.00
2017-12-30T18:05:05.252Z,10.07
2017-12-30T18:07:31.564Z,10.80
2017-12-30T18:09:57.836Z,20.20
2017-12-30T18:12:24.132Z,24.97
2017-12-30T18:14:50.460Z,16.40
2017-12-30T18:17:16.740Z,12.57
2017-12-30T18:19:43.071Z,14.30
2017-12-30T18:22:09.351Z,15.53
2017-12-30T18:24:35.800Z,15.57
2017-12-30T18:27:02.100Z,22.50
2017-12-30T18:29:28.493Z,19.50
2017-12-30T18:31:54.837Z,20.60
2017-12-30T18:34:21.153Z,14.90
2017-12-30T18:36:47.501Z,14.47
2017-12-30T18:39:13.969Z,14.43
2017-12-30T18:41:40.297Z,18.17
2017-12-30T18:44:06.535Z,16.20
2017-12-30T18:46:32.825Z,16.57
2017-12-30T18:48:59.091Z,29.60
2017-12-30T18:51:25.377Z,17.60
2017-12-30T18:53:51.639Z,14.83
2017-12-30T18:56:17.938Z,14.10
2017-12-30T18:58:44.263Z,12.57
2017-12-30T19:01:10.567Z,15.53
2017-12-30T19:03:37.622Z,11.97
2017-12-30T19:06:04.664Z,17.73
2017-12-30T19:08:31.781Z,15.33
2017-12-30T19:10:58.042Z,23.53
2017-12-30T19:13:25.163Z,12.30
2017-12-30T19:15:51.558Z,13.53
2017-12-30T19:18:17.839Z,18.03
2017-12-30T19:20:44.110Z,13.27
2017-12-30T19:23:10.424Z,16.03
2017-12-30T19:25:36.800Z,14.77
2017-12-30T19:28:03.238Z,22.67
2017-12-30T19:30:29.511Z,22.80
2017-12-30T19:32:56.541Z,10.97
2017-12-30T19:35:23.683Z,15.70
2017-12-30T19:37:49.968Z,13.80
2017-12-30T19:40:16.269Z,25.17
2017-12-30T19:42:43.316Z,21.67
2017-12-30T19:45:10.437Z,10.50
2017-12-30T19:47:36.701Z,18.47
2017-12-30T19:50:03.764Z,24.70
2017-12-30T19:52:30.024Z,28.90
2017-12-30T19:54:56.307Z,17.40
2017-12-30T19:57:23.473Z,15.60
2017-12-30T19:59:49.832Z,21.73
2017-12-30T20:02:16.199Z,23.50
2017-12-30T20:04:42.566Z,14.60
2017-12-30T20:07:08.906Z,15.87
2017-12-30T20:09:35.912Z,26.93
2017-12-30T20:12:02.517Z,19.90
2017-12-30T20:14:28.881Z,18.70
2017-12-30T20:16:55.316Z,20.43
2017-12-30T20:19:21.648Z,19.77
2017-12-30T20:21:48.147Z,19.57
2017-12-30T20:24:14.424Z,16.60
2017-12-30T20:26:40.821Z,16.50
2017-12-30T20:29:07.090Z,22.70
2017-12-30T20:31:33.470Z,20.83
2017-12-30T20:33:59.769Z,16.17
2017-12-30T20:36:26.786Z,25.20
2017-12-30T20:38:53.058Z,17.30
2017-12-30T20:41:19.433Z,21.20
2017-12-30T20:43:45.714Z,9.93
2017-12-30T20:46:12.788Z,20.27
2017-12-30T20:48:39.091Z,28.20
2017-12-30T20:51:06.194Z,19.70
2017-12-30T20:53:32.517Z,14.07
2017-12-30T20:55:59.023Z,15.60
2017-12-30T20:58:25.350Z,16.93
2017-12-30T21:00:51.714Z,18.50
2017-12-30T21:03:18.130Z,13.37
2017-12-30T21:05:44.440Z,13.67
2017-12-30T21:08:10.808Z,23.50
2017-12-30T21:10:37.132Z,18.00
2017-12-30T21:13:03.478Z,29.40
2017-12-30T21:15:29.777Z,23.23
2017-12-30T21:17:56.163Z,17.50
2017-12-30T21:20:22.514Z,21.50
2017-12-30T21:22:50.075Z,18.13
2017-12-30T21:25:17.097Z,17.70
2017-12-30T21:27:43.399Z,15.37
2017-12-30T21:30:09.725Z,15.80
2017-12-30T21:32:36.027Z,23.07
2017-12-30T21:35:02.339Z,18.67
2017-12-30T21:37:29.371Z,21.43
2017-12-30T21:39:55.685Z,18.10
2017-12-30T21:42:21.973Z,17.20
2017-12-30T21:44:48.263Z,19.60
2017-12-30T21:47:14.522Z,18.70
2017-12-30T21:49:41.557Z,16.13
2017-12-30T21:52:08.624Z,10.93
2017-12-30T21:54:34.919Z,24.60
2017-12-30T21:57:01.688Z,12.67
2017-12-30T21:59:40.144Z,15.00
2017-12-30T22:02:06.435Z,20.80
2017-12-30T22:04:32.801Z,18.53
2017-12-30T22:06:59.240Z,17.70
2017-12-30T22:09:25.558Z,22.37
2017-12-30T22:11:51.827Z,14.30
2017-12-30T22:14:18.110Z,22.03
2017-12-30T22:16:44.395Z,13.50
2017-12-30T22:19:10.730Z,14.37
2017-12-30T22:21:42.319Z,17.87
2017-12-30T22:24:08.734Z,19.37
2017-12-30T22:26:35.847Z,15.03
2017-12-30T22:29:02.123Z,26.03
2017-12-30T22:31:29.547Z,20.97
2017-12-30T22:33:55.944Z,23.40
2017-12-30T22:36:22.232Z,23.30
2017-12-30T22:38:49.255Z,11.33
2017-12-30T22:41:15.536Z,14.23
2017-12-30T22:43:41.795Z,13.97
2017-12-30T22:46:08.148Z,13.20
2017-12-30T22:48:34.476Z,18.27
2017-12-30T22:51:00.758Z,14.27
2017-12-30T22:53:27.100Z,16.07
2017-12-30T22:55:53.432Z,17.60
2017-12-30T22:58:20.572Z,18.30
2017-12-30T23:00:52.959Z,16.80
2017-12-30T23:03:19.247Z,16.37
2017-12-30T23:05:46.255Z,22.10
2017-12-30T23:08:12.531Z,21.17
2017-12-30T23:10:39.559Z,18.33
2017-12-30T23:13:05.844Z,15.57
2017-12-30T23:15:32.120Z,20.60
2017-12-30T23:17:58.372Z,12.73
2017-12-30T23:20:25.406Z,15.77
2017-12-30T23:22:52.470Z,19.50
2017-12-30T23:25:18.742Z,20.93
2017-12-30T23:27:45.006Z,17.37
2017-12-30T23:30:12.078Z,15.20
2017-12-30T23:32:38.320Z,12.37
2017-12-30T23:35:04.611Z,23.20
2017-12-30T23:37:30.877Z,14.43
2017-12-30T23:39:57.133Z,18.60
2017-12-30T23:42:23.412Z,16.37
2017-12-30T23:44:50.715Z,21.93
2017-12-30T23:47:16.974Z,12.87
2017-12-30T23:49:43.244Z,13.70
2017-12-30T23:52:09.563Z,14.73
2017-12-30T23:54:36.609Z,14.00
2017-12-30T23:57:03.714Z,18.20
2017-12-30T23:59:29.973Z,19.37
